»·PEaware :: UAL1024 KIAH-MMMX

UAL1024 :: KIAH-MMMX

FLIGHT INFORMATION

Flight Status: Arrived
Operator:
United Airlines
More flights by this operator :: More flights under this callsign
Pilot: Anonymous 13363 (13363)
Aircraft: BOEING 737-800
(B738)
More flights by this aircraft type
Origin: KIAH G Bush Intercontinental/Houst
United States
Destination: MMMX Lic Benito Juarez Intl
Mexico
More flights between these airports :: More routes between these airports
Route: RITAA5 WWREN BRO MAM UJ35 TMN/N0463F350 UJ35 AVSAR AVSA1C
File this flight plan on PilotEdge
Remarks:
Altitude:
(Current/Filed)
34,000ft
Speed:
(Current/Filed)
465kts
Departed: 20-Jul-17 02:00 PM
Arrived: 20-Jul-17 03:44 PM
Distance/Time
Traveled:
664nm/1:44
Distance/Time
To Go:
Arrived

Flight Plot

Page will automatically refresh every two minutes.

Flight plan parsing failed; only flown route is shown


Map Options




Map Legend


Flown Route
Filed Route
Departure Airport
Arrival Airport
Navaid (VOR, NDB)
Fix

Horizontal Profiles

Position Reports

Time Latitude Longitude Heading Altitude Ground
Speed
20-Jul-17 13:47 29.984391 -95.332858 0 105ft 0kts
20-Jul-17 13:48 29.984438 -95.333237 88 105ft 2kts
20-Jul-17 13:49 29.984371 -95.333682 24 105ft 2kts
20-Jul-17 13:50 29.984124 -95.333920 117 104ft 0kts
20-Jul-17 13:51 29.983691 -95.333950 187 104ft 3kts
20-Jul-17 13:52 29.983582 -95.333967 188 104ft 0kts
20-Jul-17 13:53 29.983582 -95.333967 188 104ft 0kts
20-Jul-17 13:54 29.983522 -95.333975 184 104ft 1kts
20-Jul-17 13:55 29.982274 -95.334458 264 104ft 3kts
20-Jul-17 13:56 29.982331 -95.336615 277 104ft 10kts
20-Jul-17 13:57 29.982838 -95.340815 294 104ft 16kts
20-Jul-17 13:58 29.983258 -95.346187 269 104ft 17kts
20-Jul-17 13:59 29.983332 -95.351298 286 104ft 16kts
20-Jul-17 14:00 29.986776 -95.353820 330 104ft 14kts
20-Jul-17 14:01 29.988610 -95.355869 243 104ft 7kts
20-Jul-17 14:02 29.987641 -95.357678 160 104ft 0kts
20-Jul-17 14:03 29.975020 -95.349947 152 105ft 139kts
20-Jul-17 14:04 29.938207 -95.317607 126 1540ft 169kts
20-Jul-17 14:05 29.910085 -95.272109 125 3266ft 182kts
20-Jul-17 14:06 29.879302 -95.223729 125 4708ft 213kts
20-Jul-17 14:07 29.843646 -95.166097 125 6253ft 252kts
20-Jul-17 14:08 29.792942 -95.108242 142 8013ft 294kts
20-Jul-17 14:09 29.717070 -95.106001 215 10510ft 306kts
20-Jul-17 14:10 29.646279 -95.172398 224 12147ft 347kts
20-Jul-17 14:11 29.571031 -95.242448 208 14488ft 360kts
20-Jul-17 14:12 29.480674 -95.294267 206 16928ft 375kts
20-Jul-17 14:13 29.385829 -95.347633 206 19473ft 388kts
20-Jul-17 14:14 29.288189 -95.402338 206 21825ft 401kts
20-Jul-17 14:15 29.187113 -95.458808 205 23955ft 414kts
20-Jul-17 14:16 29.083162 -95.516713 205 25877ft 426kts
20-Jul-17 14:17 28.976509 -95.576213 205 27873ft 431kts
20-Jul-17 14:18 28.870759 -95.637189 207 29848ft 430kts
20-Jul-17 14:19 28.768177 -95.701627 206 31524ft 429kts
20-Jul-17 14:20 28.664816 -95.766410 206 32942ft 428kts
20-Jul-17 14:21 28.561363 -95.831131 206 34084ft 430kts
20-Jul-17 14:22 28.453915 -95.898169 206 34140ft 456kts
20-Jul-17 14:23 28.342845 -95.967416 206 34112ft 458kts
20-Jul-17 14:24 28.231963 -96.036364 206 34110ft 458kts
20-Jul-17 14:25 28.120410 -96.105258 205 34109ft 458kts
20-Jul-17 14:26 28.008557 -96.171306 205 34110ft 458kts
20-Jul-17 14:27 27.899044 -96.235838 205 34105ft 458kts
20-Jul-17 14:28 27.788075 -96.301078 205 34102ft 458kts
20-Jul-17 14:29 27.675800 -96.366932 205 34102ft 458kts
20-Jul-17 14:30 27.563788 -96.432480 205 34102ft 458kts
20-Jul-17 14:31 27.452431 -96.497495 205 34102ft 458kts
20-Jul-17 14:32 27.340058 -96.562955 205 34102ft 458kts
20-Jul-17 14:33 27.228028 -96.628064 205 34102ft 458kts
20-Jul-17 14:34 27.116332 -96.692828 205 34100ft 459kts
20-Jul-17 14:35 27.003592 -96.758032 205 34100ft 459kts
20-Jul-17 14:36 26.891195 -96.822794 205 34093ft 457kts
20-Jul-17 14:37 26.779683 -96.887088 205 34092ft 457kts
20-Jul-17 14:38 26.667400 -96.951664 205 34092ft 457kts
20-Jul-17 14:39 26.554948 -97.016129 205 34091ft 458kts
20-Jul-17 14:40 26.442492 -97.080474 205 34092ft 459kts
20-Jul-17 14:41 26.329546 -97.144944 205 34092ft 459kts
20-Jul-17 14:42 26.216098 -97.209553 205 34092ft 460kts
20-Jul-17 14:43 26.102598 -97.274073 205 34092ft 460kts
20-Jul-17 14:44 25.989560 -97.338175 205 34100ft 460kts
20-Jul-17 14:45 25.884862 -97.414002 219 34116ft 463kts
20-Jul-17 14:46 25.788186 -97.506251 214 34081ft 462kts
20-Jul-17 14:47 25.670812 -97.558848 197 34097ft 459kts
20-Jul-17 14:48 25.549980 -97.602067 196 34093ft 459kts
20-Jul-17 14:49 25.429357 -97.644688 196 34093ft 458kts
20-Jul-17 14:50 25.311329 -97.686282 196 34094ft 460kts
20-Jul-17 14:51 25.189629 -97.729073 196 34091ft 460kts
20-Jul-17 14:52 25.068359 -97.771646 196 34091ft 457kts
20-Jul-17 14:53 24.948955 -97.813351 196 34089ft 450kts
20-Jul-17 14:54 24.833459 -97.853752 196 34092ft 450kts
20-Jul-17 14:55 24.714716 -97.895207 196 34092ft 450kts
20-Jul-17 14:56 24.595981 -97.936548 196 34092ft 450kts
20-Jul-17 14:57 24.477020 -97.977876 196 34091ft 450kts
20-Jul-17 14:58 24.357833 -98.019197 196 34091ft 450kts
20-Jul-17 14:59 24.239133 -98.060271 196 34091ft 450kts
20-Jul-17 15:00 24.118147 -98.102067 196 34094ft 457kts
20-Jul-17 15:01 23.998032 -98.143487 196 34107ft 457kts
20-Jul-17 15:02 23.880373 -98.183981 196 34110ft 457kts
20-Jul-17 15:03 23.759680 -98.225432 196 34110ft 457kts
20-Jul-17 15:04 23.638802 -98.266868 196 34110ft 457kts
20-Jul-17 15:05 23.518015 -98.308191 196 34110ft 457kts
20-Jul-17 15:06 23.397068 -98.349496 196 34110ft 457kts
20-Jul-17 15:07 23.276188 -98.390697 196 34110ft 457kts
20-Jul-17 15:08 23.155473 -98.431714 196 34109ft 457kts
20-Jul-17 15:09 23.034568 -98.472723 196 34109ft 457kts
20-Jul-17 15:10 22.913750 -98.513207 197 34107ft 455kts
20-Jul-17 15:11 22.796427 -98.552985 198 34108ft 457kts
20-Jul-17 15:12 22.675641 -98.593955 198 34108ft 457kts
20-Jul-17 15:13 22.554782 -98.634691 198 34108ft 457kts
20-Jul-17 15:14 22.437200 -98.674265 197 34110ft 457kts
20-Jul-17 15:15 22.316384 -98.714851 197 34109ft 457kts
20-Jul-17 15:16 22.195808 -98.755283 197 34073ft 457kts
20-Jul-17 15:17 22.074636 -98.795838 197 34073ft 457kts
20-Jul-17 15:18 21.949159 -98.816458 186 34085ft 458kts
20-Jul-17 15:19 21.828251 -98.828609 185 34184ft 458kts
20-Jul-17 15:20 21.702257 -98.841030 185 34308ft 458kts
20-Jul-17 15:21 21.575719 -98.853455 185 34321ft 458kts
20-Jul-17 15:22 21.449457 -98.865825 185 34332ft 458kts
20-Jul-17 15:23 21.323495 -98.878154 185 34344ft 458kts
20-Jul-17 15:24 21.197109 -98.890473 185 34347ft 458kts
20-Jul-17 15:25 21.070876 -98.902729 186 34346ft 459kts
20-Jul-17 15:26 20.944128 -98.915004 186 33832ft 453kts
20-Jul-17 15:27 20.836821 -98.925524 186 32003ft 430kts
20-Jul-17 15:28 20.718347 -98.937087 186 30399ft 435kts
20-Jul-17 15:29 20.612715 -98.947088 186 30363ft 421kts
20-Jul-17 15:30 20.503190 -98.957450 186 30355ft 399kts
20-Jul-17 15:31 20.392369 -98.968068 186 28415ft 397kts
20-Jul-17 15:32 20.285809 -98.978199 185 26583ft 379kts
20-Jul-17 15:33 20.181700 -98.988121 185 24813ft 374kts
20-Jul-17 15:34 20.079962 -98.997824 185 23064ft 363kts
20-Jul-17 15:35 19.980628 -99.007284 185 21361ft 355kts
20-Jul-17 15:36 19.887246 -99.016156 184 19757ft 346kts
20-Jul-17 15:37 19.793360 -99.025062 184 18145ft 336kts
20-Jul-17 15:38 19.711885 -99.064473 223 16089ft 322kts
20-Jul-17 15:39 19.651086 -99.127251 225 14625ft 290kts
20-Jul-17 15:40 19.596809 -99.184634 225 13413ft 264kts
20-Jul-17 15:41 19.538876 -99.221446 175 12035ft 237kts
20-Jul-17 15:42 19.478242 -99.213253 169 10897ft 218kts
20-Jul-17 15:43 19.421246 -99.203507 168 10005ft 206kts
20-Jul-17 15:44 19.386838 -99.172040 66 8884ft 177kts
20-Jul-17 15:45 19.405213 -99.126432 65 8509ft 168kts
20-Jul-17 15:46 19.427356 -99.085145 58 7410ft 160kts
20-Jul-17 15:47 19.437301 -99.067383 59 7333ft 12kts
20-Jul-17 15:48 19.442418 -99.063124 23 7328ft 21kts
20-Jul-17 15:49 19.444535 -99.063977 252 7332ft 4kts
20-Jul-17 15:50 19.442737 -99.067252 240 7336ft 18kts
20-Jul-17 15:51 19.439888 -99.072299 239 7339ft 23kts
20-Jul-17 15:52 19.437804 -99.077145 239 7336ft 0kts
20-Jul-17 15:53 19.437797 -99.077157 239 7336ft 0kts

Navigation Log

Ident Type
Flight plan parsing failed, navigation log unavailable